createdAt,value
2023-07-18T00:02:14.216Z,75.41
2023-07-18T00:04:42.024Z,75.29
2023-07-18T00:07:09.588Z,75.17
2023-07-18T00:09:38.957Z,75.13
2023-07-18T00:12:07.386Z,75.12
2023-07-18T00:14:34.889Z,75.18
2023-07-18T00:17:02.558Z,75.03
2023-07-18T00:19:31.523Z,74.81
2023-07-18T00:21:59.117Z,74.70
2023-07-18T00:24:26.588Z,74.68
2023-07-18T00:26:56.253Z,74.45
2023-07-18T00:29:24.721Z,74.44
2023-07-18T00:31:52.393Z,74.31
2023-07-18T00:34:20.485Z,74.15
2023-07-18T00:36:48.101Z,74.01
2023-07-18T00:39:15.512Z,74.01
2023-07-18T00:41:43.678Z,73.99
2023-07-18T00:44:11.201Z,73.94
2023-07-18T00:46:38.817Z,73.75
2023-07-18T00:49:06.513Z,73.62
2023-07-18T00:51:37.002Z,73.42
2023-07-18T00:54:07.836Z,73.19
2023-07-18T00:56:36.842Z,73.09
2023-07-18T00:59:05.021Z,73.23
2023-07-18T01:01:34.151Z,73.13
2023-07-18T01:04:02.912Z,72.99
2023-07-18T01:06:30.380Z,72.93
2023-07-18T01:08:58.037Z,72.86
2023-07-18T01:11:25.494Z,72.92
2023-07-18T01:13:52.948Z,73.29
2023-07-18T01:16:20.495Z,73.37
2023-07-18T01:18:47.986Z,73.41
2023-07-18T01:21:20.506Z,73.55
2023-07-18T01:23:48.840Z,73.36
2023-07-18T01:26:18.725Z,73.22
2023-07-18T01:28:47.130Z,73.41
2023-07-18T01:31:15.188Z,73.36
2023-07-18T01:33:45.271Z,73.25
2023-07-18T01:36:12.748Z,73.20
2023-07-18T01:38:40.175Z,73.48
2023-07-18T01:41:09.670Z,73.41
2023-07-18T01:43:37.201Z,73.51
2023-07-18T01:46:04.730Z,73.67
2023-07-18T01:48:34.536Z,73.78
2023-07-18T01:51:01.988Z,73.68
2023-07-18T01:53:29.431Z,73.64
2023-07-18T01:56:00.430Z,73.67
2023-07-18T01:58:28.776Z,73.56
2023-07-18T02:00:56.246Z,73.66
2023-07-18T02:03:23.786Z,73.81
2023-07-18T02:05:53.215Z,74.00
2023-07-18T02:08:20.661Z,74.03
2023-07-18T02:10:48.100Z,74.25
2023-07-18T02:13:15.632Z,74.31
2023-07-18T02:15:43.809Z,74.35
2023-07-18T02:18:11.272Z,74.42
2023-07-18T02:20:38.884Z,74.50
2023-07-18T02:23:09.813Z,74.45
2023-07-18T02:25:39.613Z,74.35
2023-07-18T02:28:09.062Z,74.32
2023-07-18T02:30:37.484Z,74.24
2023-07-18T02:33:08.517Z,74.37
2023-07-18T02:35:39.915Z,74.71
2023-07-18T02:38:07.334Z,74.70
2023-07-18T02:40:34.813Z,74.63
2023-07-18T02:43:02.250Z,74.74
2023-07-18T02:45:30.029Z,74.68
2023-07-18T02:47:57.694Z,74.61
2023-07-18T02:50:25.362Z,74.36
2023-07-18T02:52:52.966Z,74.57
2023-07-18T02:55:20.414Z,74.63
2023-07-18T02:57:47.928Z,74.60
2023-07-18T03:00:27.337Z,74.84
2023-07-18T03:02:55.230Z,74.88
2023-07-18T03:05:26.159Z,74.94
2023-07-18T03:07:55.860Z,75.15
2023-07-18T03:10:24.661Z,75.13
2023-07-18T03:12:52.136Z,75.21
2023-07-18T03:15:22.905Z,75.01
2023-07-18T03:17:50.636Z,75.05
2023-07-18T03:20:18.549Z,74.99
2023-07-18T03:22:47.377Z,75.17
2023-07-18T03:25:18.041Z,75.30
2023-07-18T03:27:45.538Z,75.41
2023-07-18T03:30:13.637Z,75.47
2023-07-18T03:32:41.751Z,75.66
2023-07-18T03:35:10.482Z,75.65
2023-07-18T03:37:38.047Z,75.65
2023-07-18T03:40:07.572Z,75.72
2023-07-18T03:42:35.172Z,75.64
2023-07-18T03:45:04.355Z,76.18
2023-07-18T03:47:32.855Z,76.43
2023-07-18T03:50:03.880Z,76.58
2023-07-18T03:52:34.325Z,76.62
2023-07-18T03:55:01.835Z,76.71
2023-07-18T03:57:34.405Z,76.97
2023-07-18T04:00:05.130Z,77.17
2023-07-18T04:02:32.596Z,77.31
2023-07-18T04:05:00.121Z,77.36
2023-07-18T04:07:30.054Z,77.61
2023-07-18T04:09:57.480Z,78.02
2023-07-18T04:12:27.303Z,78.10
2023-07-18T04:14:59.898Z,77.98
2023-07-18T04:17:29.981Z,78.06
2023-07-18T04:20:02.802Z,78.05
2023-07-18T04:22:30.880Z,78.09
2023-07-18T04:24:58.367Z,78.03
2023-07-18T04:27:27.874Z,78.06
2023-07-18T04:29:57.774Z,77.99
2023-07-18T04:32:25.447Z,77.67
2023-07-18T04:34:52.953Z,77.65
2023-07-18T04:37:22.073Z,77.56
2023-07-18T04:39:49.605Z,77.61
2023-07-18T04:42:17.046Z,77.67
2023-07-18T04:44:44.494Z,77.47
2023-07-18T04:47:12.049Z,77.60
2023-07-18T04:49:40.400Z,77.57
2023-07-18T04:52:08.874Z,77.08
2023-07-18T04:54:36.484Z,76.88
2023-07-18T04:57:05.582Z,76.89
2023-07-18T04:59:35.733Z,76.76
2023-07-18T05:02:03.731Z,76.91
2023-07-18T05:04:31.330Z,76.91
2023-07-18T05:07:00.265Z,77.29
2023-07-18T05:09:29.375Z,77.47
2023-07-18T05:11:57.023Z,77.80
2023-07-18T05:14:24.433Z,77.92
2023-07-18T05:16:52.398Z,77.54
2023-07-18T05:19:20.231Z,77.44
2023-07-18T05:21:48.063Z,77.39
2023-07-18T05:24:16.990Z,77.49
2023-07-18T05:26:44.483Z,77.40
2023-07-18T05:29:11.929Z,77.21
2023-07-18T05:31:41.361Z,77.00
2023-07-18T05:34:10.660Z,76.66
2023-07-18T05:36:38.159Z,76.27
2023-07-18T05:39:05.679Z,76.19
2023-07-18T05:41:33.087Z,76.09
2023-07-18T05:44:00.650Z,75.95
2023-07-18T05:46:28.276Z,76.02
2023-07-18T05:48:55.827Z,75.98
2023-07-18T05:51:23.344Z,75.18
2023-07-18T05:53:50.801Z,75.19
2023-07-18T05:56:18.247Z,74.87
2023-07-18T05:58:46.540Z,73.91
2023-07-18T06:01:15.353Z,73.73
2023-07-18T06:03:43.426Z,73.65
2023-07-18T06:08:33.094Z,73.44
2023-07-18T06:11:00.571Z,73.15
2023-07-18T06:13:28.184Z,73.14
2023-07-18T06:15:55.839Z,72.95
2023-07-18T06:18:23.753Z,73.06
2023-07-18T06:20:54.169Z,72.96
2023-07-18T06:23:23.835Z,72.72
2023-07-18T06:25:54.784Z,72.33
2023-07-18T06:28:22.302Z,72.27
2023-07-18T06:31:02.190Z,72.17
2023-07-18T06:33:29.946Z,71.67
2023-07-18T06:36:00.829Z,71.30
2023-07-18T06:38:28.501Z,70.94
2023-07-18T06:40:56.641Z,69.90
2023-07-18T06:43:25.810Z,69.58
2023-07-18T06:45:53.294Z,69.00
2023-07-18T06:48:23.834Z,68.99
2023-07-18T06:50:52.967Z,68.89
2023-07-18T06:53:21.499Z,69.05
2023-07-18T06:55:54.899Z,68.87
2023-07-18T06:58:22.609Z,68.47
2023-07-18T07:00:51.656Z,68.34
2023-07-18T07:03:21.672Z,68.70
2023-07-18T07:05:49.234Z,68.35
2023-07-18T07:08:20.238Z,66.78
2023-07-18T07:10:47.886Z,65.55
2023-07-18T07:13:17.088Z,64.77
2023-07-18T07:15:44.573Z,64.82
2023-07-18T07:18:12.313Z,64.98
2023-07-18T07:20:39.885Z,64.86
2023-07-18T07:23:07.391Z,63.93
2023-07-18T07:25:37.369Z,63.50
2023-07-18T07:28:05.652Z,63.37
2023-07-18T07:30:33.801Z,63.18
2023-07-18T07:33:01.331Z,62.88
2023-07-18T07:35:29.975Z,62.54
2023-07-18T07:37:59.026Z,61.53
2023-07-18T07:40:26.470Z,61.31
2023-07-18T07:42:53.961Z,59.68
2023-07-18T07:45:22.411Z,58.68
2023-07-18T07:47:50.164Z,58.74
2023-07-18T07:50:17.708Z,58.53
2023-07-18T07:52:46.804Z,58.16
2023-07-18T07:55:14.482Z,58.62
2023-07-18T07:57:42.322Z,58.09
2023-07-18T08:00:10.466Z,57.81
2023-07-18T08:02:38.373Z,57.56
2023-07-18T08:05:07.159Z,57.48
2023-07-18T08:07:34.686Z,57.53
2023-07-18T08:10:02.104Z,57.09
2023-07-18T08:12:31.878Z,56.36
2023-07-18T08:14:59.475Z,56.84
2023-07-18T08:17:27.373Z,56.75
2023-07-18T08:19:55.390Z,56.37
2023-07-18T08:22:23.509Z,56.15
2023-07-18T08:24:50.911Z,56.24
2023-07-18T08:27:18.364Z,56.11
2023-07-18T08:29:45.797Z,55.88
2023-07-18T08:32:13.255Z,55.80
2023-07-18T08:34:40.744Z,55.14
2023-07-18T08:37:10.718Z,54.32
2023-07-18T08:39:40.867Z,53.97
2023-07-18T08:42:08.557Z,54.10
2023-07-18T08:44:36.489Z,53.89
2023-07-18T08:47:06.666Z,54.66
2023-07-18T08:49:37.245Z,54.73
2023-07-18T08:52:06.701Z,54.28
2023-07-18T08:54:35.835Z,53.56
2023-07-18T08:57:05.032Z,51.83
2023-07-18T08:59:32.715Z,51.38
2023-07-18T09:02:00.184Z,51.89
2023-07-18T09:04:27.657Z,51.47
2023-07-18T09:07:01.950Z,51.73
2023-07-18T09:09:29.538Z,51.49
2023-07-18T09:12:04.078Z,51.66
2023-07-18T09:14:33.927Z,51.34
2023-07-18T09:17:04.906Z,51.26
2023-07-18T09:19:46.920Z,50.82
2023-07-18T09:22:15.121Z,50.56
2023-07-18T09:24:44.202Z,50.34
2023-07-18T09:27:17.300Z,50.69
2023-07-18T09:29:47.586Z,50.49
2023-07-18T09:32:19.519Z,49.56
2023-07-18T09:34:54.022Z,49.57
2023-07-18T09:37:21.633Z,49.11
2023-07-18T09:39:49.156Z,48.78
2023-07-18T09:42:22.824Z,48.77
2023-07-18T09:44:53.422Z,48.71
2023-07-18T09:47:21.699Z,48.61
2023-07-18T09:49:49.624Z,48.79
2023-07-18T09:52:17.421Z,48.24
2023-07-18T09:54:45.401Z,48.02
2023-07-18T09:57:14.121Z,47.66
2023-07-18T09:59:41.616Z,48.02
2023-07-18T10:02:12.648Z,49.07
2023-07-18T10:04:40.945Z,48.63
2023-07-18T10:07:10.639Z,48.15
2023-07-18T10:09:40.202Z,47.93
2023-07-18T10:12:10.498Z,48.31
2023-07-18T10:14:52.967Z,48.18
2023-07-18T10:17:37.518Z,47.65
2023-07-18T10:20:21.012Z,48.37
2023-07-18T10:22:49.567Z,48.46
2023-07-18T10:25:20.303Z,48.92
2023-07-18T10:27:48.800Z,48.69
2023-07-18T10:30:20.774Z,48.08
2023-07-18T10:32:55.416Z,48.06
2023-07-18T10:35:27.106Z,48.29
2023-07-18T10:37:57.571Z,47.56
2023-07-18T10:40:35.075Z,47.66
2023-07-18T10:43:05.842Z,47.65
2023-07-18T10:45:42.049Z,47.07
2023-07-18T10:48:15.385Z,47.42
2023-07-18T10:50:48.662Z,46.95
2023-07-18T10:53:20.281Z,47.12
2023-07-18T10:55:49.066Z,47.91
2023-07-18T10:58:18.407Z,48.58
2023-07-18T11:00:46.611Z,48.48
2023-07-18T11:03:24.620Z,47.98
2023-07-18T11:05:52.532Z,47.36
2023-07-18T11:08:27.323Z,46.36
2023-07-18T11:10:59.441Z,46.69
2023-07-18T11:13:36.837Z,45.71
2023-07-18T11:16:15.619Z,45.34
2023-07-18T11:18:45.072Z,45.42
2023-07-18T11:21:13.393Z,46.21
2023-07-18T11:23:41.198Z,46.79
2023-07-18T11:26:13.596Z,46.79
2023-07-18T11:28:42.128Z,46.69
2023-07-18T11:34:02.924Z,49.25
2023-07-18T11:36:38.049Z,50.39
2023-07-18T11:39:25.994Z,51.56
2023-07-18T11:41:55.405Z,51.96
2023-07-18T11:44:25.061Z,51.38
2023-07-18T11:46:53.292Z,51.88
2023-07-18T11:49:36.292Z,52.80
2023-07-18T11:52:05.312Z,53.22
2023-07-18T11:54:37.010Z,52.75
2023-07-18T11:57:06.893Z,52.81
2023-07-18T11:59:34.438Z,53.04
2023-07-18T12:02:02.976Z,52.98
2023-07-18T12:04:30.525Z,52.92
2023-07-18T12:06:58.947Z,52.87
2023-07-18T12:09:27.003Z,52.80
2023-07-18T12:11:55.786Z,52.17
2023-07-18T12:14:23.627Z,51.81
2023-07-18T12:16:51.190Z,52.26
2023-07-18T12:19:21.645Z,51.72
2023-07-18T12:21:52.321Z,51.99
2023-07-18T12:24:19.892Z,52.62
2023-07-18T12:26:50.258Z,53.17
2023-07-18T12:29:18.303Z,53.54
2023-07-18T12:31:47.497Z,53.25
2023-07-18T12:34:15.520Z,53.15
2023-07-18T12:36:43.151Z,52.76
2023-07-18T12:39:11.522Z,52.75
2023-07-18T12:41:39.323Z,52.61
2023-07-18T12:44:11.683Z,52.67
2023-07-18T12:46:40.630Z,51.96
2023-07-18T12:49:08.137Z,50.70
2023-07-18T12:51:35.692Z,50.33
2023-07-18T12:54:04.090Z,50.21
2023-07-18T12:56:34.702Z,50.84
2023-07-18T12:59:02.187Z,51.35
2023-07-18T13:01:31.097Z,50.01
2023-07-18T13:03:58.897Z,49.08
2023-07-18T13:06:26.444Z,49.52
2023-07-18T13:08:54.475Z,50.23
2023-07-18T13:11:21.991Z,50.61
2023-07-18T13:13:52.855Z,51.20
2023-07-18T13:16:20.671Z,51.33
2023-07-18T13:18:49.716Z,51.86
2023-07-18T13:21:17.938Z,51.56
2023-07-18T13:23:45.482Z,51.52
2023-07-18T13:26:14.408Z,52.16
2023-07-18T13:28:42.880Z,51.77
2023-07-18T13:31:10.873Z,51.40
2023-07-18T13:33:39.606Z,51.59
2023-07-18T13:36:07.375Z,52.02
2023-07-18T13:38:35.570Z,52.61
2023-07-18T13:41:09.152Z,53.21
2023-07-18T13:43:37.173Z,52.77
2023-07-18T13:46:04.928Z,51.88
2023-07-18T13:48:33.974Z,51.92
2023-07-18T13:51:04.073Z,51.63
2023-07-18T13:53:31.555Z,51.06
2023-07-18T13:55:59.040Z,50.10
2023-07-18T13:58:29.180Z,50.28
2023-07-18T14:00:56.710Z,49.10
2023-07-18T14:03:35.186Z,47.74
2023-07-18T14:06:04.776Z,48.03
2023-07-18T14:08:32.621Z,47.67
2023-07-18T14:11:00.608Z,47.94
2023-07-18T14:13:32.793Z,48.21
2023-07-18T14:16:00.288Z,46.77
2023-07-18T14:18:27.787Z,45.94
2023-07-18T14:20:55.283Z,45.22
2023-07-18T14:23:22.977Z,44.61
2023-07-18T14:25:50.565Z,44.85
2023-07-18T14:28:18.952Z,45.61
2023-07-18T14:30:46.491Z,46.57
2023-07-18T14:33:15.483Z,47.20
2023-07-18T14:35:45.101Z,47.33
2023-07-18T14:38:13.465Z,46.65
2023-07-18T14:40:41.113Z,46.16
2023-07-18T14:43:12.169Z,46.53
2023-07-18T14:45:39.777Z,46.93
2023-07-18T14:48:07.545Z,46.69
2023-07-18T14:50:37.604Z,46.47
2023-07-18T14:53:05.432Z,46.71
2023-07-18T14:55:35.205Z,46.43
2023-07-18T14:58:03.140Z,46.15
2023-07-18T15:00:30.651Z,46.27
2023-07-18T15:02:58.169Z,45.73
2023-07-18T15:05:25.963Z,45.65
2023-07-18T15:07:53.485Z,45.72
2023-07-18T15:10:20.979Z,45.93
2023-07-18T15:12:53.356Z,45.95
2023-07-18T15:15:21.767Z,45.74
2023-07-18T15:17:52.231Z,45.60
2023-07-18T15:20:20.153Z,45.33
2023-07-18T15:22:52.697Z,45.02
2023-07-18T15:25:20.476Z,45.16
2023-07-18T15:27:47.982Z,45.33
2023-07-18T15:30:15.550Z,45.81
2023-07-18T15:32:46.069Z,45.96
2023-07-18T15:35:14.828Z,45.73
2023-07-18T15:37:42.312Z,45.80
2023-07-18T15:40:10.639Z,46.12
2023-07-18T15:42:39.525Z,45.93
2023-07-18T15:45:07.487Z,45.81
2023-07-18T15:47:35.095Z,46.08
2023-07-18T15:50:02.849Z,46.24
2023-07-18T15:52:30.385Z,46.45
2023-07-18T15:54:58.705Z,46.68
2023-07-18T15:57:26.198Z,46.79
2023-07-18T15:59:53.711Z,46.30
2023-07-18T16:02:21.313Z,45.65
2023-07-18T16:04:48.810Z,45.66
2023-07-18T16:07:16.319Z,45.76
2023-07-18T16:09:57.658Z,45.87
2023-07-18T16:12:25.866Z,46.08
2023-07-18T16:15:02.588Z,46.70
2023-07-18T16:17:30.349Z,46.45
2023-07-18T16:19:58.501Z,46.22
2023-07-18T16:22:25.978Z,46.19
2023-07-18T16:24:53.576Z,46.43
2023-07-18T16:27:23.170Z,46.64
2023-07-18T16:29:51.061Z,47.29
2023-07-18T16:32:18.672Z,47.14
2023-07-18T16:34:46.531Z,47.35
2023-07-18T16:37:14.077Z,47.46
2023-07-18T16:39:41.603Z,47.62
2023-07-18T16:42:22.939Z,47.72
2023-07-18T16:44:51.958Z,47.79
2023-07-18T16:47:19.653Z,47.62
2023-07-18T16:49:47.193Z,47.50
2023-07-18T16:52:15.156Z,47.48
2023-07-18T16:54:42.691Z,47.66
2023-07-18T16:57:11.427Z,47.87
2023-07-18T16:59:38.997Z,47.76
2023-07-18T17:02:07.077Z,47.98
2023-07-18T17:04:34.573Z,47.87
2023-07-18T17:07:03.423Z,47.88
2023-07-18T17:09:31.040Z,48.03
2023-07-18T17:11:58.492Z,47.94
2023-07-18T17:14:26.026Z,47.92
2023-07-18T17:16:53.667Z,48.13
2023-07-18T17:19:21.854Z,48.26
2023-07-18T17:21:49.354Z,48.48
2023-07-18T17:24:18.354Z,48.49
2023-07-18T17:26:46.979Z,48.80
2023-07-18T17:29:14.514Z,49.20
2023-07-18T17:31:42.159Z,49.36
2023-07-18T17:34:10.081Z,49.61
2023-07-18T17:36:37.494Z,49.67
2023-07-18T17:39:05.545Z,49.60
2023-07-18T17:41:33.268Z,49.86
2023-07-18T17:44:00.736Z,49.92
2023-07-18T17:46:28.392Z,50.23
2023-07-18T17:48:55.917Z,50.07
2023-07-18T17:51:23.502Z,50.34
2023-07-18T17:53:53.642Z,50.64
2023-07-18T17:56:23.369Z,51.09
2023-07-18T17:58:50.949Z,51.32
2023-07-18T18:01:21.534Z,51.27
2023-07-18T18:03:49.724Z,51.31
2023-07-18T18:06:17.365Z,51.46
2023-07-18T18:08:45.096Z,51.53
2023-07-18T18:11:12.665Z,51.35
2023-07-18T18:13:40.153Z,51.24
2023-07-18T18:16:09.346Z,51.26
2023-07-18T18:18:38.191Z,51.15
2023-07-18T18:21:07.527Z,51.15
2023-07-18T18:26:35.461Z,51.52
2023-07-18T18:29:06.238Z,51.60
2023-07-18T18:31:34.655Z,51.47
2023-07-18T18:34:02.092Z,51.68
2023-07-18T18:36:30.722Z,51.74
2023-07-18T18:38:57.919Z,51.84
2023-07-18T18:41:26.421Z,52.32
2023-07-18T18:43:57.170Z,52.80
2023-07-18T18:46:24.043Z,53.34
2023-07-18T18:48:50.976Z,53.92
2023-07-18T18:51:20.671Z,54.07
2023-07-18T18:53:47.672Z,53.60
2023-07-18T18:56:14.344Z,53.57
2023-07-18T18:58:41.794Z,53.90
2023-07-18T19:01:10.177Z,54.25
2023-07-18T19:03:38.769Z,54.43
2023-07-18T19:06:06.244Z,54.33
2023-07-18T19:08:33.374Z,54.30
2023-07-18T19:11:07.445Z,54.16
2023-07-18T19:13:36.201Z,54.13
2023-07-18T19:16:04.080Z,54.31
2023-07-18T19:18:31.160Z,54.78
2023-07-18T19:20:58.932Z,55.38
2023-07-18T19:23:29.035Z,55.77
2023-07-18T19:25:56.004Z,56.02
2023-07-18T19:28:23.175Z,56.43
2023-07-18T19:30:52.015Z,56.98
2023-07-18T19:33:19.128Z,57.35
2023-07-18T19:35:46.673Z,57.34
2023-07-18T19:38:14.637Z,57.59
2023-07-18T19:40:41.901Z,57.84
2023-07-18T19:43:09.255Z,58.21
2023-07-18T19:45:36.575Z,58.73
2023-07-18T19:48:03.961Z,59.19
2023-07-18T19:50:31.118Z,59.60
2023-07-18T19:52:59.893Z,59.77
2023-07-18T19:55:26.740Z,59.82
2023-07-18T19:57:55.139Z,60.17
2023-07-18T20:00:24.340Z,60.50
2023-07-18T20:02:51.113Z,60.70
2023-07-18T20:05:22.501Z,60.98
2023-07-18T20:07:49.739Z,61.13
2023-07-18T20:10:16.454Z,61.11
2023-07-18T20:12:44.156Z,60.79
2023-07-18T20:15:10.981Z,60.55
2023-07-18T20:17:37.997Z,60.61
2023-07-18T20:20:05.692Z,61.19
2023-07-18T20:22:33.252Z,61.60
2023-07-18T20:24:59.979Z,61.58
2023-07-18T20:27:27.992Z,61.57
2023-07-18T20:29:55.592Z,61.71
2023-07-18T20:32:24.734Z,61.92
2023-07-18T20:34:52.347Z,61.99
2023-07-18T20:37:19.112Z,61.98
2023-07-18T20:39:46.513Z,62.04
2023-07-18T20:42:13.606Z,62.19
2023-07-18T20:44:45.195Z,62.42
2023-07-18T20:47:12.659Z,62.50
2023-07-18T20:49:39.592Z,62.87
2023-07-18T20:52:09.776Z,63.12
2023-07-18T20:54:37.420Z,63.31
2023-07-18T20:57:05.437Z,63.39
2023-07-18T20:59:32.429Z,63.23
2023-07-18T21:01:59.174Z,63.26
2023-07-18T21:04:27.424Z,63.63
2023-07-18T21:06:55.032Z,63.88
2023-07-18T21:09:22.273Z,64.22
2023-07-18T21:11:49.393Z,64.37
2023-07-18T21:14:18.516Z,64.44
2023-07-18T21:16:46.328Z,64.38
2023-07-18T21:19:14.670Z,64.35
2023-07-18T21:21:41.916Z,64.32
2023-07-18T21:24:09.230Z,64.20
2023-07-18T21:26:36.919Z,64.37
2023-07-18T21:29:05.814Z,64.29
2023-07-18T21:31:34.678Z,64.26
2023-07-18T21:34:02.120Z,64.07
2023-07-18T21:36:30.782Z,63.99
2023-07-18T21:38:58.209Z,63.92
2023-07-18T21:41:26.008Z,63.94
2023-07-18T21:43:53.079Z,63.97
2023-07-18T21:46:19.798Z,64.21
2023-07-18T21:48:48.302Z,64.36
2023-07-18T21:51:15.969Z,64.34
2023-07-18T21:53:43.196Z,64.37
2023-07-18T21:56:10.706Z,64.56
2023-07-18T21:58:38.422Z,64.54
2023-07-18T22:01:07.895Z,64.47
2023-07-18T22:03:38.232Z,64.65
2023-07-18T22:06:06.297Z,64.78
2023-07-18T22:08:33.242Z,64.54
2023-07-18T22:11:00.360Z,64.65
2023-07-18T22:13:29.321Z,64.67
2023-07-18T22:16:01.599Z,64.88
2023-07-18T22:18:29.143Z,64.99
2023-07-18T22:20:56.349Z,65.08
2023-07-18T22:23:24.972Z,64.99
2023-07-18T22:26:07.932Z,65.27
2023-07-18T22:28:42.331Z,65.34
2023-07-18T22:31:11.410Z,65.34
2023-07-18T22:33:39.993Z,65.28
2023-07-18T22:36:06.937Z,65.44
2023-07-18T22:38:33.813Z,65.61
2023-07-18T22:41:03.021Z,65.76
2023-07-18T22:43:31.081Z,65.80
2023-07-18T22:45:57.881Z,65.96
2023-07-18T22:48:27.298Z,66.05
2023-07-18T22:50:58.291Z,66.22
2023-07-18T22:53:29.792Z,66.35
2023-07-18T22:55:58.704Z,66.62
2023-07-18T22:58:27.063Z,66.54
2023-07-18T23:00:55.497Z,66.66
2023-07-18T23:03:22.645Z,67.02
2023-07-18T23:05:49.329Z,67.10
2023-07-18T23:08:16.350Z,66.89
2023-07-18T23:10:43.214Z,66.98
2023-07-18T23:13:16.464Z,67.02
2023-07-18T23:15:43.625Z,67.03
2023-07-18T23:18:10.464Z,67.03
2023-07-18T23:20:37.541Z,67.20
2023-07-18T23:23:05.850Z,67.09
2023-07-18T23:25:34.572Z,67.15
2023-07-18T23:28:01.294Z,67.25
2023-07-18T23:30:28.666Z,67.48
2023-07-18T23:32:55.598Z,67.42
2023-07-18T23:35:27.774Z,67.45
2023-07-18T23:37:57.522Z,67.55
2023-07-18T23:40:25.377Z,67.34
2023-07-18T23:42:52.667Z,67.41
2023-07-18T23:45:21.649Z,67.27
2023-07-18T23:47:48.989Z,67.03
2023-07-18T23:50:16.213Z,66.97
2023-07-18T23:52:44.295Z,67.17
2023-07-18T23:55:12.236Z,67.05
2023-07-18T23:57:42.484Z,66.89
